sensor_id;sensor_type;location;lat;lon;timestamp;pressure;altitude;pressure_sealevel;temperature;humidity
50859;BME280;36826;47.514;19.056;2022-09-13T00:01:38;100023.53;;;19.59;47.47
50859;BME280;36826;47.514;19.056;2022-09-13T00:04:04;100023.56;;;19.66;46.93
50859;BME280;36826;47.514;19.056;2022-09-13T00:06:29;100021.81;;;19.51;47.30
50859;BME280;36826;47.514;19.056;2022-09-13T00:08:55;100027.38;;;19.43;47.46
50859;BME280;36826;47.514;19.056;2022-09-13T00:11:25;100033.91;;;19.20;47.54
50859;BME280;36826;47.514;19.056;2022-09-13T00:13:52;100023.56;;;19.09;48.34
50859;BME280;36826;47.514;19.056;2022-09-13T00:16:20;100034.81;;;19.06;48.20
50859;BME280;36826;47.514;19.056;2022-09-13T00:18:46;100029.22;;;19.36;47.39
50859;BME280;36826;47.514;19.056;2022-09-13T00:21:17;100033.88;;;19.42;47.52
50859;BME280;36826;47.514;19.056;2022-09-13T00:23:47;100028.72;;;19.25;47.65
50859;BME280;36826;47.514;19.056;2022-09-13T00:26:16;100030.94;;;19.43;47.29
50859;BME280;36826;47.514;19.056;2022-09-13T00:28:42;100023.63;;;19.44;47.60
50859;BME280;36826;47.514;19.056;2022-09-13T00:31:10;100029.06;;;19.44;47.00
50859;BME280;36826;47.514;19.056;2022-09-13T00:33:36;100023.50;;;19.52;47.36
50859;BME280;36826;47.514;19.056;2022-09-13T00:36:07;100026.44;;;19.57;46.81
50859;BME280;36826;47.514;19.056;2022-09-13T00:38:40;100027.25;;;19.51;46.74
50859;BME280;36826;47.514;19.056;2022-09-13T00:41:09;100019.38;;;19.35;47.16
50859;BME280;36826;47.514;19.056;2022-09-13T00:49:16;100024.16;;;19.32;48.00
50859;BME280;36826;47.514;19.056;2022-09-13T00:51:52;100017.88;;;19.25;47.75
50859;BME280;36826;47.514;19.056;2022-09-13T00:54:21;100021.91;;;19.36;47.80
50859;BME280;36826;47.514;19.056;2022-09-13T00:56:53;100025.84;;;19.34;48.13
50859;BME280;36826;47.514;19.056;2022-09-13T00:59:25;100019.00;;;19.09;49.04
50859;BME280;36826;47.514;19.056;2022-09-13T01:01:54;100025.38;;;19.23;49.01
50859;BME280;36826;47.514;19.056;2022-09-13T01:04:22;100025.84;;;19.34;48.81
50859;BME280;36826;47.514;19.056;2022-09-13T01:06:51;100019.22;;;19.36;49.43
50859;BME280;36826;47.514;19.056;2022-09-13T01:09:18;100014.63;;;18.93;50.84
50859;BME280;36826;47.514;19.056;2022-09-13T01:11:50;100022.84;;;19.22;50.21
50859;BME280;36826;47.514;19.056;2022-09-13T01:14:30;100021.88;;;18.86;51.25
50859;BME280;36826;47.514;19.056;2022-09-13T01:16:56;100023.66;;;18.79;51.97
50859;BME280;36826;47.514;19.056;2022-09-13T01:19:22;100026.38;;;18.35;53.41
50859;BME280;36826;47.514;19.056;2022-09-13T01:25:18;100008.41;;;18.34;52.97
50859;BME280;36826;47.514;19.056;2022-09-13T01:28:24;100012.28;;;18.25;53.61
50859;BME280;36826;47.514;19.056;2022-09-13T01:31:32;100015.41;;;18.07;54.40
50859;BME280;36826;47.514;19.056;2022-09-13T01:34:23;100002.50;;;18.46;53.55
50859;BME280;36826;47.514;19.056;2022-09-13T01:37:05;100015.59;;;18.64;52.82
50859;BME280;36826;47.514;19.056;2022-09-13T01:48:28;100007.88;;;18.24;53.73
50859;BME280;36826;47.514;19.056;2022-09-13T01:51:05;100005.41;;;18.44;53.21
50859;BME280;36826;47.514;19.056;2022-09-13T02:02:03;99997.59;;;18.56;53.28
50859;BME280;36826;47.514;19.056;2022-09-13T02:04:49;100002.78;;;18.36;54.31
50859;BME280;36826;47.514;19.056;2022-09-13T02:07:30;100003.59;;;18.73;53.22
50859;BME280;36826;47.514;19.056;2022-09-13T02:10:06;100000.44;;;18.48;54.15
50859;BME280;36826;47.514;19.056;2022-09-13T02:12:35;99997.44;;;18.43;54.16
50859;BME280;36826;47.514;19.056;2022-09-13T02:15:24;100007.72;;;18.11;54.98
50859;BME280;36826;47.514;19.056;2022-09-13T02:18:11;100001.84;;;17.77;56.05
50859;BME280;36826;47.514;19.056;2022-09-13T02:20:43;99995.50;;;17.85;57.00
50859;BME280;36826;47.514;19.056;2022-09-13T02:23:17;99998.28;;;18.43;54.81
50859;BME280;36826;47.514;19.056;2022-09-13T02:25:46;99995.75;;;18.42;54.95
50859;BME280;36826;47.514;19.056;2022-09-13T02:28:18;99996.25;;;18.45;54.86
50859;BME280;36826;47.514;19.056;2022-09-13T02:30:50;99987.81;;;18.18;55.72
50859;BME280;36826;47.514;19.056;2022-09-13T02:36:09;99983.72;;;18.29;55.87
50859;BME280;36826;47.514;19.056;2022-09-13T02:38:51;99992.75;;;18.15;56.40
50859;BME280;36826;47.514;19.056;2022-09-13T02:43:56;99990.63;;;17.95;55.96
50859;BME280;36826;47.514;19.056;2022-09-13T02:52:28;99997.72;;;17.36;56.50
50859;BME280;36826;47.514;19.056;2022-09-13T02:55:22;99986.97;;;17.43;56.07
50859;BME280;36826;47.514;19.056;2022-09-13T02:58:02;99988.84;;;17.87;54.75
50859;BME280;36826;47.514;19.056;2022-09-13T03:00:42;99986.03;;;17.81;54.40
50859;BME280;36826;47.514;19.056;2022-09-13T03:03:13;99989.00;;;17.11;55.32
50859;BME280;36826;47.514;19.056;2022-09-13T03:05:42;99988.44;;;17.15;55.31
50859;BME280;36826;47.514;19.056;2022-09-13T03:08:15;99988.63;;;16.91;55.56
50859;BME280;36826;47.514;19.056;2022-09-13T03:10:54;99984.13;;;17.06;56.06
50859;BME280;36826;47.514;19.056;2022-09-13T03:13:38;99975.22;;;17.51;54.54
50859;BME280;36826;47.514;19.056;2022-09-13T03:30:13;99973.28;;;17.29;55.02
50859;BME280;36826;47.514;19.056;2022-09-13T03:36:01;99972.75;;;17.11;56.10
50859;BME280;36826;47.514;19.056;2022-09-13T03:38:38;99967.94;;;17.36;55.52
50859;BME280;36826;47.514;19.056;2022-09-13T03:41:25;99964.44;;;17.12;56.49
50859;BME280;36826;47.514;19.056;2022-09-13T03:43:58;99960.00;;;17.20;56.44
50859;BME280;36826;47.514;19.056;2022-09-13T03:46:32;99963.94;;;15.84;60.39
50859;BME280;36826;47.514;19.056;2022-09-13T03:49:07;99964.03;;;16.62;59.79
50859;BME280;36826;47.514;19.056;2022-09-13T03:51:36;99955.50;;;16.88;58.67
50859;BME280;36826;47.514;19.056;2022-09-13T03:54:09;99963.22;;;17.00;58.37
50859;BME280;36826;47.514;19.056;2022-09-13T03:56:38;99952.25;;;17.16;58.31
50859;BME280;36826;47.514;19.056;2022-09-13T03:59:03;99962.19;;;17.01;58.42
50859;BME280;36826;47.514;19.056;2022-09-13T04:01:29;99963.50;;;16.82;59.29
50859;BME280;36826;47.514;19.056;2022-09-13T04:03:55;99961.47;;;16.61;60.73
50859;BME280;36826;47.514;19.056;2022-09-13T04:06:20;99964.03;;;16.62;60.51
50859;BME280;36826;47.514;19.056;2022-09-13T04:08:46;99964.63;;;16.72;60.33
50859;BME280;36826;47.514;19.056;2022-09-13T04:11:12;99962.44;;;16.45;61.96
50859;BME280;36826;47.514;19.056;2022-09-13T04:13:38;99958.81;;;16.37;61.95
50859;BME280;36826;47.514;19.056;2022-09-13T04:16:05;99962.28;;;17.08;59.73
50859;BME280;36826;47.514;19.056;2022-09-13T04:18:32;99952.91;;;17.18;58.67
50859;BME280;36826;47.514;19.056;2022-09-13T04:21:06;99957.66;;;17.31;58.21
50859;BME280;36826;47.514;19.056;2022-09-13T04:23:35;99955.47;;;16.50;60.90
50859;BME280;36826;47.514;19.056;2022-09-13T04:26:04;99964.97;;;16.69;60.00
50859;BME280;36826;47.514;19.056;2022-09-13T04:28:30;99955.50;;;16.88;59.13
50859;BME280;36826;47.514;19.056;2022-09-13T04:30:56;99954.91;;;16.63;60.01
50859;BME280;36826;47.514;19.056;2022-09-13T04:33:23;99949.25;;;16.50;59.61
50859;BME280;36826;47.514;19.056;2022-09-13T04:35:56;99954.41;;;17.36;56.89
50859;BME280;36826;47.514;19.056;2022-09-13T04:38:23;99961.94;;;17.11;56.92
50859;BME280;36826;47.514;19.056;2022-09-13T04:40:55;99956.41;;;17.94;54.75
50859;BME280;36826;47.514;19.056;2022-09-13T04:43:23;99952.25;;;18.50;53.18
50859;BME280;36826;47.514;19.056;2022-09-13T04:45:49;99960.72;;;19.82;49.63
50859;BME280;36826;47.514;19.056;2022-09-13T04:48:14;99961.22;;;21.22;46.82
50859;BME280;36826;47.514;19.056;2022-09-13T04:50:41;99954.22;;;22.57;43.29
50859;BME280;36826;47.514;19.056;2022-09-13T04:53:09;99958.09;;;20.71;46.20
50859;BME280;36826;47.514;19.056;2022-09-13T04:55:34;99966.09;;;21.92;44.20
50859;BME280;36826;47.514;19.056;2022-09-13T04:58:08;99963.97;;;23.66;40.61
50859;BME280;36826;47.514;19.056;2022-09-13T05:00:34;99956.69;;;22.91;41.37
50859;BME280;36826;47.514;19.056;2022-09-13T05:03:02;99962.97;;;24.16;39.71
50859;BME280;36826;47.514;19.056;2022-09-13T05:05:28;99969.56;;;26.00;36.39
50859;BME280;36826;47.514;19.056;2022-09-13T05:07:56;99967.50;;;26.65;35.00
50859;BME280;36826;47.514;19.056;2022-09-13T05:10:23;99971.78;;;25.03;37.09
50859;BME280;36826;47.514;19.056;2022-09-13T05:12:52;99978.56;;;20.53;45.58
50859;BME280;36826;47.514;19.056;2022-09-13T05:15:18;99974.75;;;23.80;40.56
50859;BME280;36826;47.514;19.056;2022-09-13T05:17:51;99972.50;;;25.46;37.16
50859;BME280;36826;47.514;19.056;2022-09-13T05:20:18;99973.72;;;24.30;39.04
50859;BME280;36826;47.514;19.056;2022-09-13T05:22:43;99971.91;;;27.74;33.57
50859;BME280;36826;47.514;19.056;2022-09-13T05:25:11;99979.66;;;26.41;34.27
50859;BME280;36826;47.514;19.056;2022-09-13T05:27:36;99980.66;;;26.34;35.07
50859;BME280;36826;47.514;19.056;2022-09-13T05:30:12;99981.69;;;29.24;31.01
50859;BME280;36826;47.514;19.056;2022-09-13T05:32:46;99976.59;;;29.05;30.86
50859;BME280;36826;47.514;19.056;2022-09-13T05:35:12;99981.53;;;28.16;31.41
50859;BME280;36826;47.514;19.056;2022-09-13T05:37:38;99976.50;;;24.11;38.03
50859;BME280;36826;47.514;19.056;2022-09-13T05:40:07;99979.53;;;27.67;32.95
50859;BME280;36826;47.514;19.056;2022-09-13T05:42:33;99969.56;;;26.58;34.16
50859;BME280;36826;47.514;19.056;2022-09-13T05:44:59;99967.50;;;26.08;33.52
50859;BME280;36826;47.514;19.056;2022-09-13T05:47:25;99969.56;;;29.73;29.21
50859;BME280;36826;47.514;19.056;2022-09-13T05:49:52;99974.00;;;27.45;31.26
50859;BME280;36826;47.514;19.056;2022-09-13T05:52:37;99973.16;;;28.88;29.91
50859;BME280;36826;47.514;19.056;2022-09-13T05:55:03;99977.94;;;26.98;32.31
50859;BME280;36826;47.514;19.056;2022-09-13T05:57:29;99984.34;;;25.99;34.04
50859;BME280;36826;47.514;19.056;2022-09-13T05:59:55;99979.78;;;27.87;31.23
50859;BME280;36826;47.514;19.056;2022-09-13T06:02:32;99976.78;;;30.84;27.01
50859;BME280;36826;47.514;19.056;2022-09-13T06:04:59;99977.06;;;32.61;25.44
50859;BME280;36826;47.514;19.056;2022-09-13T06:07:27;99985.31;;;34.08;23.80
50859;BME280;36826;47.514;19.056;2022-09-13T06:09:55;99991.22;;;35.30;22.38
50859;BME280;36826;47.514;19.056;2022-09-13T06:12:37;99982.63;;;35.12;22.89
50859;BME280;36826;47.514;19.056;2022-09-13T06:15:13;99990.63;;;33.02;24.79
50859;BME280;36826;47.514;19.056;2022-09-13T06:17:44;99988.31;;;32.74;24.74
50859;BME280;36826;47.514;19.056;2022-09-13T06:20:13;99988.84;;;34.71;23.03
50859;BME280;36826;47.514;19.056;2022-09-13T06:23:11;99990.53;;;30.53;26.60
50859;BME280;36826;47.514;19.056;2022-09-13T06:25:42;99989.41;;;30.28;27.41
50859;BME280;36826;47.514;19.056;2022-09-13T06:28:52;99993.94;;;32.64;25.18
50859;BME280;36826;47.514;19.056;2022-09-13T06:37:35;99991.22;;;32.94;25.09
50859;BME280;36826;47.514;19.056;2022-09-13T06:40:23;99991.88;;;36.70;21.33
50859;BME280;36826;47.514;19.056;2022-09-13T06:51:09;99989.91;;;31.91;25.64
50859;BME280;36826;47.514;19.056;2022-09-13T06:56:36;99984.06;;;35.10;22.51
50859;BME280;36826;47.514;19.056;2022-09-13T07:02:28;99993.53;;;37.17;20.63
50859;BME280;36826;47.514;19.056;2022-09-13T07:05:05;99989.63;;;37.49;20.14
50859;BME280;36826;47.514;19.056;2022-09-13T07:07:43;99991.22;;;35.86;21.77
50859;BME280;36826;47.514;19.056;2022-09-13T07:10:38;99999.72;;;33.86;22.99
50859;BME280;36826;47.514;19.056;2022-09-13T07:16:07;100002.00;;;38.76;19.21
50859;BME280;36826;47.514;19.056;2022-09-13T07:18:39;99992.31;;;38.56;18.71
50859;BME280;36826;47.514;19.056;2022-09-13T07:21:13;99993.94;;;38.75;18.33
50859;BME280;36826;47.514;19.056;2022-09-13T07:23:46;100007.72;;;38.18;18.33
50859;BME280;36826;47.514;19.056;2022-09-13T07:26:17;99995.09;;;40.92;15.89
50859;BME280;36826;47.514;19.056;2022-09-13T07:28:46;99994.72;;;40.82;16.47
50859;BME280;36826;47.514;19.056;2022-09-13T07:31:42;100001.84;;;40.79;16.67
50859;BME280;36826;47.514;19.056;2022-09-13T07:34:21;99997.28;;;40.53;16.61
50859;BME280;36826;47.514;19.056;2022-09-13T07:36:47;100000.69;;;40.59;16.48
50859;BME280;36826;47.514;19.056;2022-09-13T07:39:23;100000.28;;;39.67;16.44
50859;BME280;36826;47.514;19.056;2022-09-13T07:42:15;100006.41;;;41.17;15.53
50859;BME280;36826;47.514;19.056;2022-09-13T07:44:42;100003.31;;;40.64;16.20
50859;BME280;36826;47.514;19.056;2022-09-13T07:47:11;100006.22;;;34.24;20.67
50859;BME280;36826;47.514;19.056;2022-09-13T07:49:47;100005.06;;;35.91;18.91
50859;BME280;36826;47.514;19.056;2022-09-13T07:52:13;100000.78;;;31.51;23.09
50859;BME280;36826;47.514;19.056;2022-09-13T07:54:45;100003.03;;;31.49;23.28
50859;BME280;36826;47.514;19.056;2022-09-13T07:57:12;100011.22;;;30.35;23.92
50859;BME280;36826;47.514;19.056;2022-09-13T07:59:42;100003.00;;;34.55;21.40
50859;BME280;36826;47.514;19.056;2022-09-13T08:02:11;100010.69;;;28.94;26.16
50859;BME280;36826;47.514;19.056;2022-09-13T08:04:40;99998.16;;;32.01;23.46
50859;BME280;36826;47.514;19.056;2022-09-13T08:07:19;99997.72;;;28.12;27.62
50859;BME280;36826;47.514;19.056;2022-09-13T08:09:51;100001.66;;;31.10;24.75
50859;BME280;36826;47.514;19.056;2022-09-13T08:12:24;100004.59;;;28.10;28.25
50859;BME280;36826;47.514;19.056;2022-09-13T08:15:00;100003.19;;;29.22;25.77
50859;BME280;36826;47.514;19.056;2022-09-13T08:17:37;100010.19;;;26.73;30.16
50859;BME280;36826;47.514;19.056;2022-09-13T08:20:06;100005.41;;;28.10;28.17
50859;BME280;36826;47.514;19.056;2022-09-13T08:22:33;100002.97;;;32.80;23.34
50859;BME280;36826;47.514;19.056;2022-09-13T08:25:07;100005.81;;;34.88;21.29
50859;BME280;36826;47.514;19.056;2022-09-13T08:27:52;100009.75;;;38.53;18.25
50859;BME280;36826;47.514;19.056;2022-09-13T08:30:23;99999.16;;;37.48;18.99
50859;BME280;36826;47.514;19.056;2022-09-13T08:32:49;100008.72;;;30.13;25.27
50859;BME280;36826;47.514;19.056;2022-09-13T08:35:27;99988.72;;;28.44;27.16
50859;BME280;36826;47.514;19.056;2022-09-13T08:37:57;99990.88;;;32.16;24.48
50859;BME280;36826;47.514;19.056;2022-09-13T08:40:30;100004.09;;;32.34;23.19
50859;BME280;36826;47.514;19.056;2022-09-13T08:45:53;99989.63;;;37.49;19.33
50859;BME280;36826;47.514;19.056;2022-09-13T08:48:27;99992.59;;;35.46;20.72
50859;BME280;36826;47.514;19.056;2022-09-13T08:51:04;99996.47;;;32.55;23.29
50859;BME280;36826;47.514;19.056;2022-09-13T08:53:43;99994.06;;;28.56;28.05
50859;BME280;36826;47.514;19.056;2022-09-13T08:56:21;99990.97;;;32.00;23.93
50859;BME280;36826;47.514;19.056;2022-09-13T09:04:46;99999.03;;;37.30;19.47
50859;BME280;36826;47.514;19.056;2022-09-13T09:07:19;99993.06;;;42.38;15.41
50859;BME280;36826;47.514;19.056;2022-09-13T09:09:52;100008.00;;;42.55;14.86
50859;BME280;36826;47.514;19.056;2022-09-13T09:18:31;99996.78;;;40.30;16.87
50859;BME280;36826;47.514;19.056;2022-09-13T09:21:03;99988.44;;;42.05;15.21
50859;BME280;36826;47.514;19.056;2022-09-13T09:24:01;99989.97;;;40.10;16.60
50859;BME280;36826;47.514;19.056;2022-09-13T09:26:34;99979.91;;;42.42;15.06
50859;BME280;36826;47.514;19.056;2022-09-13T09:29:19;99974.22;;;33.05;22.51
50859;BME280;36826;47.514;19.056;2022-09-13T09:35:27;99958.03;;;46.18;12.68
50859;BME280;36826;47.514;19.056;2022-09-13T09:40:47;99970.41;;;29.26;26.83
50859;BME280;36826;47.514;19.056;2022-09-13T09:43:23;99963.94;;;33.60;22.54
50859;BME280;36826;47.514;19.056;2022-09-13T09:45:56;99950.50;;;41.37;15.85
50859;BME280;36826;47.514;19.056;2022-09-13T09:48:26;99953.06;;;40.08;16.17
50859;BME280;36826;47.514;19.056;2022-09-13T09:50:56;99958.59;;;31.90;23.94
50859;BME280;36826;47.514;19.056;2022-09-13T09:53:53;99953.47;;;28.74;27.61
50859;BME280;36826;47.514;19.056;2022-09-13T09:56:31;99939.97;;;39.22;17.38
50859;BME280;36826;47.514;19.056;2022-09-13T09:59:01;99944.69;;;32.51;21.66
50859;BME280;36826;47.514;19.056;2022-09-13T10:01:51;99931.16;;;41.72;15.41
50859;BME280;36826;47.514;19.056;2022-09-13T10:04:42;99932.06;;;27.54;28.63
50859;BME280;36826;47.514;19.056;2022-09-13T10:07:29;99917.59;;;33.07;22.92
50859;BME280;36826;47.514;19.056;2022-09-13T10:10:25;99914.97;;;32.91;22.68
50859;BME280;36826;47.514;19.056;2022-09-13T10:12:55;99916.34;;;33.23;22.88
50859;BME280;36826;47.514;19.056;2022-09-13T10:15:25;99922.19;;;26.05;31.53
50859;BME280;36826;47.514;19.056;2022-09-13T10:18:14;99919.84;;;25.08;32.69
50859;BME280;36826;47.514;19.056;2022-09-13T10:23:51;99908.78;;;26.38;30.70
50859;BME280;36826;47.514;19.056;2022-09-13T10:26:25;99901.38;;;28.12;28.81
50859;BME280;36826;47.514;19.056;2022-09-13T10:29:20;99900.41;;;24.74;33.69
50859;BME280;36826;47.514;19.056;2022-09-13T10:31:52;99899.88;;;25.61;31.88
50859;BME280;36826;47.514;19.056;2022-09-13T10:34:24;99888.81;;;26.76;30.91
50859;BME280;36826;47.514;19.056;2022-09-13T10:37:01;99887.38;;;25.53;33.08
50859;BME280;36826;47.514;19.056;2022-09-13T10:40:06;99892.78;;;23.73;34.82
50859;BME280;36826;47.514;19.056;2022-09-13T10:42:36;99878.75;;;25.73;32.13
50859;BME280;36826;47.514;19.056;2022-09-13T10:48:04;99884.69;;;25.05;33.23
50859;BME280;36826;47.514;19.056;2022-09-13T10:51:04;99905.44;;;23.37;36.37
50859;BME280;36826;47.514;19.056;2022-09-13T10:53:42;99887.53;;;24.20;35.51
50859;BME280;36826;47.514;19.056;2022-09-13T10:56:28;99880.28;;;28.23;29.59
50859;BME280;36826;47.514;19.056;2022-09-13T10:59:14;99890.09;;;24.03;35.18
50859;BME280;36826;47.514;19.056;2022-09-13T11:01:55;99879.03;;;26.46;31.78
50859;BME280;36826;47.514;19.056;2022-09-13T11:04:55;99880.72;;;25.37;33.42
50859;BME280;36826;47.514;19.056;2022-09-13T11:07:55;99880.53;;;27.50;30.21
50859;BME280;36826;47.514;19.056;2022-09-13T11:10:54;99875.09;;;26.25;31.59
50859;BME280;36826;47.514;19.056;2022-09-13T11:13:54;99880.09;;;28.35;29.23
50859;BME280;36826;47.514;19.056;2022-09-13T11:30:23;99857.97;;;27.97;28.94
50859;BME280;36826;47.514;19.056;2022-09-13T11:33:20;99857.97;;;27.97;28.69
50859;BME280;36826;47.514;19.056;2022-09-13T11:39:14;99848.13;;;28.67;28.03
50859;BME280;36826;47.514;19.056;2022-09-13T11:53:38;99831.50;;;27.91;29.13
50859;BME280;36826;47.514;19.056;2022-09-13T11:56:18;99823.13;;;27.53;29.26
50859;BME280;36826;47.514;19.056;2022-09-13T11:58:52;99829.63;;;29.00;27.59
50859;BME280;36826;47.514;19.056;2022-09-13T12:01:24;99825.16;;;26.79;30.11
50859;BME280;36826;47.514;19.056;2022-09-13T12:04:18;99826.38;;;27.50;28.66
50859;BME280;36826;47.514;19.056;2022-09-13T12:07:11;99830.00;;;28.33;27.16
50859;BME280;36826;47.514;19.056;2022-09-13T12:09:52;99831.66;;;29.25;25.99
50859;BME280;36826;47.514;19.056;2022-09-13T12:12:22;99826.56;;;29.49;26.75
50859;BME280;36826;47.514;19.056;2022-09-13T12:15:02;99826.13;;;29.94;26.47
50859;BME280;36826;47.514;19.056;2022-09-13T12:17:40;99825.03;;;30.00;26.06
50859;BME280;36826;47.514;19.056;2022-09-13T12:20:45;99809.84;;;30.28;25.69
50859;BME280;36826;47.514;19.056;2022-09-13T12:23:41;99818.16;;;30.34;25.74
50859;BME280;36826;47.514;19.056;2022-09-13T12:29:00;99816.44;;;29.86;25.94
50859;BME280;36826;47.514;19.056;2022-09-13T12:34:26;99802.91;;;29.05;27.33
50859;BME280;36826;47.514;19.056;2022-09-13T13:00:29;99784.81;;;29.30;27.55
50859;BME280;36826;47.514;19.056;2022-09-13T13:03:18;99790.47;;;29.72;27.46
50859;BME280;36826;47.514;19.056;2022-09-13T13:05:47;99791.81;;;29.59;27.76
50859;BME280;36826;47.514;19.056;2022-09-13T13:13:59;99785.44;;;28.41;29.56
50859;BME280;36826;47.514;19.056;2022-09-13T13:16:50;99787.81;;;27.45;30.71
50859;BME280;36826;47.514;19.056;2022-09-13T13:19:48;99770.84;;;27.81;30.16
50859;BME280;36826;47.514;19.056;2022-09-13T13:23:01;99771.69;;;28.46;29.64
50859;BME280;36826;47.514;19.056;2022-09-13T13:36:56;99783.19;;;28.06;31.04
50859;BME280;36826;47.514;19.056;2022-09-13T13:40:18;99774.75;;;28.55;29.98
50859;BME280;36826;47.514;19.056;2022-09-13T13:42:46;99775.13;;;27.66;31.34
50859;BME280;36826;47.514;19.056;2022-09-13T13:45:25;99757.69;;;28.15;30.75
50859;BME280;36826;47.514;19.056;2022-09-13T13:48:22;99751.53;;;28.08;31.26
50859;BME280;36826;47.514;19.056;2022-09-13T13:51:21;99765.00;;;28.32;30.99
50859;BME280;36826;47.514;19.056;2022-09-13T13:53:58;99768.34;;;28.82;30.10
50859;BME280;36826;47.514;19.056;2022-09-13T13:56:33;99773.59;;;28.89;29.94
50859;BME280;36826;47.514;19.056;2022-09-13T13:59:08;99757.34;;;28.92;30.12
50859;BME280;36826;47.514;19.056;2022-09-13T14:01:44;99756.03;;;29.05;29.69
50859;BME280;36826;47.514;19.056;2022-09-13T14:19:24;99753.94;;;29.33;29.32
50859;BME280;36826;47.514;19.056;2022-09-13T14:22:17;99747.22;;;28.55;30.03
50859;BME280;36826;47.514;19.056;2022-09-13T14:24:52;99738.38;;;28.96;29.46
50859;BME280;36826;47.514;19.056;2022-09-13T14:27:33;99735.16;;;28.61;29.96
50859;BME280;36826;47.514;19.056;2022-09-13T14:30:15;99738.84;;;28.77;29.94
50859;BME280;36826;47.514;19.056;2022-09-13T14:32:46;99729.03;;;29.13;29.43
50859;BME280;36826;47.514;19.056;2022-09-13T14:37:52;99728.75;;;28.51;30.45
50859;BME280;36826;47.514;19.056;2022-09-13T14:40:25;99729.44;;;28.30;30.51
50859;BME280;36826;47.514;19.056;2022-09-13T14:42:55;99722.13;;;28.46;30.63
50859;BME280;36826;47.514;19.056;2022-09-13T14:45:30;99719.03;;;28.91;29.88
50859;BME280;36826;47.514;19.056;2022-09-13T14:48:17;99719.25;;;27.38;31.33
50859;BME280;36826;47.514;19.056;2022-09-13T14:50:52;99711.47;;;28.23;30.98
50859;BME280;36826;47.514;19.056;2022-09-13T14:53:31;99711.88;;;28.04;31.13
50859;BME280;36826;47.514;19.056;2022-09-13T14:56:06;99713.84;;;27.21;32.14
50859;BME280;36826;47.514;19.056;2022-09-13T14:58:49;99711.03;;;27.66;31.90
50859;BME280;36826;47.514;19.056;2022-09-13T15:01:20;99710.25;;;28.08;31.30
50859;BME280;36826;47.514;19.056;2022-09-13T15:03:55;99702.75;;;27.38;31.96
50859;BME280;36826;47.514;19.056;2022-09-13T15:06:27;99711.84;;;27.99;31.03
50859;BME280;36826;47.514;19.056;2022-09-13T15:11:55;99699.25;;;27.43;31.97
50859;BME280;36826;47.514;19.056;2022-09-13T15:14:32;99696.47;;;28.03;30.99
50859;BME280;36826;47.514;19.056;2022-09-13T15:17:11;99686.66;;;27.80;31.30
50859;BME280;36826;47.514;19.056;2022-09-13T15:19:47;99683.09;;;27.84;31.15
50859;BME280;36826;47.514;19.056;2022-09-13T15:22:28;99696.75;;;27.69;31.54
50859;BME280;36826;47.514;19.056;2022-09-13T15:24:56;99678.22;;;26.82;32.88
50859;BME280;36826;47.514;19.056;2022-09-13T15:27:30;99680.88;;;26.99;32.93
50859;BME280;36826;47.514;19.056;2022-09-13T15:30:02;99686.03;;;26.73;33.03
50859;BME280;36826;47.514;19.056;2022-09-13T15:35:27;99677.72;;;26.85;32.83
50859;BME280;36826;47.514;19.056;2022-09-13T15:38:27;99676.53;;;27.03;32.62
50859;BME280;36826;47.514;19.056;2022-09-13T15:41:11;99684.09;;;27.18;32.47
50859;BME280;36826;47.514;19.056;2022-09-13T15:43:37;99686.44;;;27.32;32.24
50859;BME280;36826;47.514;19.056;2022-09-13T15:46:03;99673.47;;;27.49;32.10
50859;BME280;36826;47.514;19.056;2022-09-13T15:48:34;99683.59;;;27.76;31.56
50859;BME280;36826;47.514;19.056;2022-09-13T15:51:13;99681.09;;;28.07;30.87
50859;BME280;36826;47.514;19.056;2022-09-13T15:53:42;99681.91;;;28.08;31.26
50859;BME280;36826;47.514;19.056;2022-09-13T15:56:12;99682.72;;;28.08;31.10
50859;BME280;36826;47.514;19.056;2022-09-13T15:58:38;99674.75;;;27.14;32.46
50859;BME280;36826;47.514;19.056;2022-09-13T16:01:05;99671.69;;;27.38;32.21
50859;BME280;36826;47.514;19.056;2022-09-13T16:03:31;99664.78;;;27.35;32.30
50859;BME280;36826;47.514;19.056;2022-09-13T16:05:57;99665.50;;;27.53;32.10
50859;BME280;36826;47.514;19.056;2022-09-13T16:08:23;99663.25;;;27.45;32.33
50859;BME280;36826;47.514;19.056;2022-09-13T16:10:51;99647.44;;;27.35;32.27
50859;BME280;36826;47.514;19.056;2022-09-13T16:13:18;99653.38;;;27.21;32.46
50859;BME280;36826;47.514;19.056;2022-09-13T16:15:44;99659.59;;;27.39;32.22
50859;BME280;36826;47.514;19.056;2022-09-13T16:18:16;99649.63;;;27.33;32.63
50859;BME280;36826;47.514;19.056;2022-09-13T16:20:46;99653.78;;;27.63;32.18
50859;BME280;36826;47.514;19.056;2022-09-13T16:23:15;99648.91;;;27.42;32.24
50859;BME280;36826;47.514;19.056;2022-09-13T16:25:43;99648.13;;;27.47;31.99
50859;BME280;36826;47.514;19.056;2022-09-13T16:28:23;99648.72;;;27.22;32.75
50859;BME280;36826;47.514;19.056;2022-09-13T16:30:50;99649.44;;;27.12;32.96
50859;BME280;36826;47.514;19.056;2022-09-13T16:33:16;99650.84;;;26.48;33.85
50859;BME280;36826;47.514;19.056;2022-09-13T16:35:49;99643.34;;;27.10;32.99
50859;BME280;36826;47.514;19.056;2022-09-13T16:38:16;99642.94;;;27.23;32.79
50859;BME280;36826;47.514;19.056;2022-09-13T16:40:44;99634.63;;;26.69;33.45
50859;BME280;36826;47.514;19.056;2022-09-13T16:43:18;99644.97;;;26.61;33.25
50859;BME280;36826;47.514;19.056;2022-09-13T16:45:47;99644.41;;;26.59;33.64
50859;BME280;36826;47.514;19.056;2022-09-13T16:48:14;99637.84;;;26.83;33.36
50859;BME280;36826;47.514;19.056;2022-09-13T16:50:40;99642.47;;;26.60;33.79
50859;BME280;36826;47.514;19.056;2022-09-13T16:53:06;99643.25;;;26.77;33.42